OXF1010 X14-KTPA
Flight info
| Callsign | OXF1010 |
|---|---|
| Flight time | 1h 4m |
| Altitude | 5000 |
| Route | JAYMC BLFRG3 |
| Aircraft | P28A/L-SBD/C |
Departure
| Time | 2026-04-20 23:25 |
|---|---|
| Airport | La Belle Municipal Airport (X14) |
Arrival
| Time | 2026-04-21 00:30 |
|---|---|
| Airport | Tampa International Airport (KTPA) |
| Time | Latitude | Longitude | Altitude | Speed | Heading |
|---|---|---|---|---|---|
| 2026-04-20 23:10 | 26.74565 | -81.43221 | 16 ft | 0 kts | 225° |
| 2026-04-20 23:23 | 26.74564 | -81.43223 | 16 ft | 3 kts | 225° |
| 2026-04-20 23:23 | 26.74578 | -81.43271 | 16 ft | 8 kts | 314° |
| 2026-04-20 23:23 | 26.74606 | -81.43316 | 16 ft | 6 kts | 253° |
| 2026-04-20 23:23 | 26.74564 | -81.43349 | 16 ft | 9 kts | 164° |
| 2026-04-20 23:24 | 26.74512 | -81.43303 | 16 ft | 13 kts | 137° |
| 2026-04-20 23:24 | 26.74445 | -81.43179 | 16 ft | 0 kts | 329° |
| 2026-04-20 23:24 | 26.74388 | -81.43170 | 16 ft | 33 kts | 130° |
| 2026-04-20 23:24 | 26.74081 | -81.42862 | 44 ft | 80 kts | 125° |
| 2026-04-20 23:25 | 26.73638 | -81.42458 | 281 ft | 83 kts | 126° |
| 2026-04-20 23:25 | 26.73233 | -81.42049 | 583 ft | 77 kts | 116° |
| 2026-04-20 23:25 | 26.73052 | -81.41527 | 780 ft | 73 kts | 72° |
| 2026-04-20 23:25 | 26.73237 | -81.41005 | 1058 ft | 69 kts | 58° |
| 2026-04-20 23:26 | 26.73601 | -81.40735 | 1380 ft | 64 kts | 20° |
| 2026-04-20 23:26 | 26.74013 | -81.40662 | 1686 ft | 59 kts | 16° |
| 2026-04-20 23:26 | 26.74398 | -81.40610 | 1962 ft | 55 kts | 15° |
| 2026-04-20 23:26 | 26.74784 | -81.40590 | 2205 ft | 56 kts | 12° |
| 2026-04-20 23:27 | 26.75184 | -81.40591 | 2425 ft | 60 kts | 7° |
| 2026-04-20 23:27 | 26.75595 | -81.40705 | 2677 ft | 61 kts | 357° |
| 2026-04-20 23:27 | 26.76000 | -81.40836 | 2897 ft | 60 kts | 5° |
| 2026-04-20 23:27 | 26.76418 | -81.40874 | 3111 ft | 58 kts | 15° |
| 2026-04-20 23:28 | 26.76800 | -81.40646 | 3259 ft | 66 kts | 36° |
| 2026-04-20 23:28 | 26.77217 | -81.40394 | 3479 ft | 69 kts | 28° |
| 2026-04-20 23:28 | 26.77653 | -81.40201 | 3731 ft | 67 kts | 23° |
| 2026-04-20 23:28 | 26.78071 | -81.40063 | 4001 ft | 61 kts | 19° |
| 2026-04-20 23:29 | 26.78509 | -81.39937 | 4170 ft | 68 kts | 18° |
| 2026-04-20 23:29 | 26.78986 | -81.39812 | 4366 ft | 72 kts | 17° |
| 2026-04-20 23:29 | 26.79480 | -81.39702 | 4574 ft | 73 kts | 15° |
| 2026-04-20 23:29 | 26.79987 | -81.39601 | 4785 ft | 74 kts | 14° |
| 2026-04-20 23:30 | 26.80501 | -81.39507 | 4992 ft | 75 kts | 13° |
| 2026-04-20 23:30 | 26.81032 | -81.39417 | 5154 ft | 81 kts | 12° |
| 2026-04-20 23:30 | 26.81681 | -81.39301 | 5130 ft | 104 kts | 13° |
| 2026-04-20 23:30 | 26.82441 | -81.39172 | 5119 ft | 112 kts | 13° |
| 2026-04-20 23:31 | 26.82468 | -81.39168 | 5119 ft | 112 kts | 13° |
| 2026-04-20 23:31 | 26.82648 | -81.39136 | 5118 ft | 108 kts | 14° |
| 2026-04-20 23:31 | 26.83365 | -81.39027 | 5118 ft | 100 kts | 12° |
| 2026-04-20 23:31 | 26.84034 | -81.38930 | 5119 ft | 97 kts | 11° |
| 2026-04-20 23:32 | 26.84736 | -81.38830 | 5123 ft | 103 kts | 12° |
| 2026-04-20 23:32 | 26.85463 | -81.38721 | 5122 ft | 106 kts | 12° |
| 2026-04-20 23:32 | 26.86206 | -81.38610 | 5120 ft | 108 kts | 12° |
| 2026-04-20 23:32 | 26.86967 | -81.38498 | 5120 ft | 110 kts | 12° |
| 2026-04-20 23:33 | 26.87730 | -81.38387 | 5120 ft | 111 kts | 12° |
| 2026-04-20 23:33 | 26.88488 | -81.38275 | 5117 ft | 106 kts | 12° |
| 2026-04-20 23:33 | 26.89158 | -81.38177 | 5110 ft | 84 kts | 14° |
| 2026-04-20 23:33 | 26.89728 | -81.38115 | 5124 ft | 90 kts | 9° |
| 2026-04-20 23:34 | 26.90405 | -81.38009 | 5126 ft | 102 kts | 13° |
| 2026-04-20 23:34 | 26.91137 | -81.37897 | 5125 ft | 106 kts | 12° |
| 2026-04-20 23:34 | 26.91880 | -81.37786 | 5124 ft | 109 kts | 12° |
| 2026-04-20 23:34 | 26.92642 | -81.37673 | 5125 ft | 110 kts | 12° |
| 2026-04-20 23:35 | 26.93407 | -81.37561 | 5127 ft | 111 kts | 12° |
| 2026-04-20 23:35 | 26.94950 | -81.37336 | 5130 ft | 112 kts | 12° |
| 2026-04-20 23:35 | 26.95726 | -81.37224 | 5131 ft | 112 kts | 12° |
| 2026-04-20 23:36 | 26.96508 | -81.37109 | 5132 ft | 113 kts | 12° |
| 2026-04-20 23:36 | 26.97294 | -81.37015 | 5128 ft | 115 kts | 4° |
| 2026-04-20 23:36 | 26.98056 | -81.37451 | 4974 ft | 134 kts | 320° |
| 2026-04-20 23:36 | 26.98429 | -81.38387 | 4946 ft | 132 kts | 292° |
| 2026-04-20 23:37 | 26.98648 | -81.39361 | 4946 ft | 123 kts | 291° |
| 2026-04-20 23:37 | 26.98840 | -81.40280 | 4949 ft | 123 kts | 291° |
| 2026-04-20 23:37 | 26.99042 | -81.41224 | 4951 ft | 124 kts | 292° |
| 2026-04-20 23:37 | 26.99246 | -81.42165 | 4952 ft | 124 kts | 292° |
| 2026-04-20 23:38 | 26.99451 | -81.43095 | 4952 ft | 124 kts | 292° |
| 2026-04-20 23:38 | 26.99657 | -81.44037 | 4951 ft | 124 kts | 291° |
| 2026-04-20 23:38 | 26.99863 | -81.44989 | 4950 ft | 125 kts | 292° |
| 2026-04-20 23:38 | 27.00071 | -81.45936 | 4948 ft | 125 kts | 291° |
| 2026-04-20 23:39 | 27.00277 | -81.46886 | 4948 ft | 125 kts | 291° |
| 2026-04-20 23:39 | 27.00484 | -81.47825 | 4950 ft | 125 kts | 291° |
| 2026-04-20 23:39 | 27.00693 | -81.48789 | 4950 ft | 125 kts | 291° |
| 2026-04-20 23:39 | 27.00898 | -81.49735 | 4950 ft | 126 kts | 291° |
| 2026-04-20 23:40 | 27.01109 | -81.50694 | 4951 ft | 127 kts | 291° |
| 2026-04-20 23:40 | 27.01318 | -81.51656 | 4949 ft | 128 kts | 291° |
| 2026-04-20 23:40 | 27.01530 | -81.52628 | 4950 ft | 128 kts | 291° |
| 2026-04-20 23:40 | 27.01745 | -81.53614 | 4950 ft | 129 kts | 291° |
| 2026-04-20 23:41 | 27.01955 | -81.54581 | 4951 ft | 129 kts | 292° |
| 2026-04-20 23:41 | 27.02131 | -81.55390 | 4949 ft | 129 kts | 291° |
| 2026-04-20 23:41 | 27.02249 | -81.55940 | 4948 ft | 129 kts | 290° |
| 2026-04-20 23:41 | 27.02463 | -81.56928 | 4951 ft | 129 kts | 291° |
| 2026-04-20 23:42 | 27.02673 | -81.57895 | 4952 ft | 129 kts | 292° |
| 2026-04-20 23:42 | 27.02888 | -81.58880 | 4953 ft | 130 kts | 291° |
| 2026-04-20 23:42 | 27.03107 | -81.59872 | 4953 ft | 131 kts | 291° |
| 2026-04-20 23:42 | 27.03322 | -81.60870 | 4953 ft | 131 kts | 291° |
| 2026-04-20 23:43 | 27.03538 | -81.61868 | 4954 ft | 131 kts | 291° |
| 2026-04-20 23:43 | 27.03753 | -81.62859 | 4954 ft | 131 kts | 291° |
| 2026-04-20 23:43 | 27.03968 | -81.63844 | 4954 ft | 130 kts | 291° |
| 2026-04-20 23:43 | 27.04181 | -81.64831 | 4954 ft | 130 kts | 291° |
| 2026-04-20 23:44 | 27.04270 | -81.65244 | 4952 ft | 130 kts | 290° |
| 2026-04-20 23:44 | 27.04359 | -81.65656 | 4950 ft | 130 kts | 291° |
| 2026-04-20 23:44 | 27.04576 | -81.66649 | 4950 ft | 130 kts | 290° |
| 2026-04-20 23:44 | 27.04788 | -81.67632 | 4950 ft | 130 kts | 291° |
| 2026-04-20 23:45 | 27.05003 | -81.68625 | 4949 ft | 130 kts | 291° |
| 2026-04-20 23:45 | 27.05215 | -81.69602 | 4947 ft | 130 kts | 290° |
| 2026-04-20 23:45 | 27.05426 | -81.70583 | 4950 ft | 129 kts | 291° |
| 2026-04-20 23:45 | 27.05639 | -81.71571 | 4951 ft | 129 kts | 291° |
| 2026-04-20 23:46 | 27.05854 | -81.72557 | 4951 ft | 129 kts | 291° |
| 2026-04-20 23:46 | 27.06065 | -81.73530 | 4951 ft | 129 kts | 291° |
| 2026-04-20 23:46 | 27.06267 | -81.74513 | 4951 ft | 130 kts | 289° |
| 2026-04-20 23:46 | 27.06478 | -81.75502 | 4951 ft | 129 kts | 289° |
| 2026-04-20 23:47 | 27.06689 | -81.76473 | 4956 ft | 128 kts | 290° |
| 2026-04-20 23:47 | 27.06897 | -81.77454 | 4957 ft | 129 kts | 290° |
| 2026-04-20 23:47 | 27.07111 | -81.78429 | 4954 ft | 129 kts | 290° |
| 2026-04-20 23:47 | 27.07320 | -81.79399 | 4952 ft | 128 kts | 290° |
| 2026-04-20 23:48 | 27.07530 | -81.80380 | 4952 ft | 128 kts | 290° |
| 2026-04-20 23:48 | 27.07738 | -81.81349 | 4952 ft | 128 kts | 290° |
| 2026-04-20 23:48 | 27.07947 | -81.82322 | 4954 ft | 128 kts | 290° |
| 2026-04-20 23:48 | 27.08157 | -81.83294 | 4950 ft | 127 kts | 291° |
| 2026-04-20 23:49 | 27.08642 | -81.84053 | 4948 ft | 117 kts | 329° |
| 2026-04-20 23:49 | 27.09274 | -81.84589 | 4955 ft | 113 kts | 332° |
| 2026-04-20 23:49 | 27.09914 | -81.85095 | 4958 ft | 111 kts | 333° |
| 2026-04-20 23:49 | 27.10543 | -81.85587 | 4958 ft | 109 kts | 333° |
| 2026-04-20 23:50 | 27.11161 | -81.86070 | 4959 ft | 108 kts | 333° |
| 2026-04-20 23:50 | 27.11643 | -81.86445 | 4959 ft | 108 kts | 333° |
| 2026-04-20 23:51 | 27.11723 | -81.86506 | 4959 ft | 108 kts | 333° |
| 2026-04-20 23:51 | 27.12009 | -81.86728 | 4961 ft | 107 kts | 333° |
| 2026-04-20 23:52 | 27.12551 | -81.87149 | 4963 ft | 104 kts | 333° |
| 2026-04-20 23:52 | 27.12579 | -81.87170 | 4961 ft | 105 kts | 333° |
| 2026-04-20 23:52 | 27.12883 | -81.87405 | 4960 ft | 105 kts | 333° |
| 2026-04-20 23:52 | 27.13492 | -81.87878 | 4963 ft | 105 kts | 333° |
| 2026-04-20 23:53 | 27.14094 | -81.88345 | 4968 ft | 106 kts | 333° |
| 2026-04-20 23:53 | 27.14712 | -81.88820 | 4968 ft | 107 kts | 333° |
| 2026-04-20 23:53 | 27.15322 | -81.89292 | 4967 ft | 107 kts | 333° |
| 2026-04-20 23:53 | 27.15938 | -81.89766 | 4964 ft | 107 kts | 333° |
| 2026-04-20 23:54 | 27.16570 | -81.90258 | 4963 ft | 113 kts | 333° |
| 2026-04-20 23:54 | 27.17224 | -81.90762 | 4961 ft | 114 kts | 333° |
| 2026-04-20 23:54 | 27.17877 | -81.91264 | 4959 ft | 114 kts | 333° |
| 2026-04-20 23:54 | 27.18535 | -81.91773 | 4960 ft | 113 kts | 333° |
| 2026-04-20 23:55 | 27.19185 | -81.92275 | 4965 ft | 114 kts | 333° |
| 2026-04-20 23:55 | 27.19844 | -81.92782 | 4966 ft | 115 kts | 332° |
| 2026-04-20 23:55 | 27.20509 | -81.93295 | 4964 ft | 116 kts | 332° |
| 2026-04-20 23:55 | 27.21172 | -81.93806 | 4962 ft | 116 kts | 332° |
| 2026-04-20 23:56 | 27.21843 | -81.94326 | 4961 ft | 117 kts | 332° |
| 2026-04-20 23:56 | 27.22525 | -81.94855 | 4960 ft | 120 kts | 332° |
| 2026-04-20 23:56 | 27.23224 | -81.95395 | 4960 ft | 122 kts | 332° |
| 2026-04-20 23:56 | 27.23928 | -81.95939 | 4959 ft | 123 kts | 331° |
| 2026-04-20 23:57 | 27.24630 | -81.96479 | 4962 ft | 124 kts | 332° |
| 2026-04-20 23:57 | 27.25348 | -81.97034 | 4962 ft | 124 kts | 332° |
| 2026-04-20 23:57 | 27.26064 | -81.97588 | 4961 ft | 124 kts | 332° |
| 2026-04-20 23:57 | 27.26778 | -81.98141 | 4962 ft | 124 kts | 332° |
| 2026-04-20 23:58 | 27.27494 | -81.98695 | 4963 ft | 124 kts | 332° |
| 2026-04-20 23:58 | 27.28200 | -81.99242 | 4962 ft | 124 kts | 332° |
| 2026-04-20 23:58 | 27.28919 | -81.99801 | 4963 ft | 125 kts | 332° |
| 2026-04-20 23:58 | 27.29631 | -82.00350 | 4962 ft | 125 kts | 332° |
| 2026-04-20 23:59 | 27.30354 | -82.00909 | 4962 ft | 125 kts | 332° |
| 2026-04-20 23:59 | 27.31070 | -82.01463 | 4963 ft | 125 kts | 332° |
| 2026-04-20 23:59 | 27.31791 | -82.02022 | 4963 ft | 125 kts | 332° |
| 2026-04-20 23:59 | 27.32503 | -82.02573 | 4964 ft | 125 kts | 332° |
| 2026-04-21 00:00 | 27.33222 | -82.03128 | 4965 ft | 125 kts | 332° |
| 2026-04-21 00:00 | 27.33943 | -82.03688 | 4963 ft | 125 kts | 332° |
| 2026-04-21 00:00 | 27.34655 | -82.04240 | 4962 ft | 125 kts | 332° |
| 2026-04-21 00:00 | 27.35373 | -82.04796 | 4962 ft | 125 kts | 332° |
| 2026-04-21 00:01 | 27.36094 | -82.05356 | 4962 ft | 125 kts | 332° |
| 2026-04-21 00:01 | 27.36811 | -82.05913 | 4963 ft | 125 kts | 332° |
| 2026-04-21 00:01 | 27.37528 | -82.06468 | 4964 ft | 125 kts | 332° |
| 2026-04-21 00:01 | 27.38244 | -82.07025 | 4965 ft | 125 kts | 333° |
| 2026-04-21 00:02 | 27.38961 | -82.07580 | 4966 ft | 125 kts | 332° |
| 2026-04-21 00:02 | 27.39681 | -82.08138 | 4968 ft | 127 kts | 332° |
| 2026-04-21 00:02 | 27.40417 | -82.08709 | 4969 ft | 128 kts | 331° |
| 2026-04-21 00:02 | 27.41154 | -82.09280 | 4969 ft | 130 kts | 331° |
| 2026-04-21 00:03 | 27.41903 | -82.09860 | 4972 ft | 130 kts | 332° |
| 2026-04-21 00:03 | 27.42648 | -82.10441 | 4976 ft | 130 kts | 331° |
| 2026-04-21 00:03 | 27.43402 | -82.11024 | 4982 ft | 130 kts | 330° |
| 2026-04-21 00:03 | 27.44148 | -82.11603 | 4985 ft | 130 kts | 331° |
| 2026-04-21 00:04 | 27.44898 | -82.12186 | 4986 ft | 130 kts | 331° |
| 2026-04-21 00:04 | 27.45643 | -82.12766 | 4986 ft | 131 kts | 330° |
| 2026-04-21 00:04 | 27.46390 | -82.13348 | 4985 ft | 131 kts | 331° |
| 2026-04-21 00:04 | 27.47149 | -82.13935 | 4987 ft | 131 kts | 331° |
| 2026-04-21 00:05 | 27.47895 | -82.14515 | 4977 ft | 132 kts | 330° |
| 2026-04-21 00:05 | 27.48659 | -82.15109 | 4971 ft | 132 kts | 331° |
| 2026-04-21 00:05 | 27.49410 | -82.15694 | 4970 ft | 132 kts | 331° |
| 2026-04-21 00:05 | 27.50165 | -82.16281 | 4970 ft | 131 kts | 331° |
| 2026-04-21 00:06 | 27.50921 | -82.16869 | 4972 ft | 131 kts | 331° |
| 2026-04-21 00:06 | 27.51668 | -82.17451 | 4973 ft | 131 kts | 331° |
| 2026-04-21 00:06 | 27.52422 | -82.18035 | 4971 ft | 131 kts | 331° |
| 2026-04-21 00:06 | 27.53180 | -82.18629 | 4970 ft | 129 kts | 332° |
| 2026-04-21 00:07 | 27.53875 | -82.19155 | 4962 ft | 113 kts | 332° |
| 2026-04-21 00:07 | 27.54481 | -82.19638 | 4960 ft | 101 kts | 333° |
| 2026-04-21 00:07 | 27.55039 | -82.20079 | 4956 ft | 93 kts | 334° |
| 2026-04-21 00:07 | 27.55561 | -82.20493 | 4955 ft | 92 kts | 334° |
| 2026-04-21 00:08 | 27.56089 | -82.20905 | 4954 ft | 94 kts | 334° |
| 2026-04-21 00:08 | 27.56634 | -82.21330 | 4954 ft | 95 kts | 334° |
| 2026-04-21 00:08 | 27.57201 | -82.21774 | 4956 ft | 102 kts | 332° |
| 2026-04-21 00:08 | 27.57812 | -82.22244 | 4957 ft | 110 kts | 333° |
| 2026-04-21 00:09 | 27.58457 | -82.22743 | 4959 ft | 114 kts | 333° |
| 2026-04-21 00:09 | 27.59130 | -82.23263 | 4962 ft | 118 kts | 332° |
| 2026-04-21 00:09 | 27.59806 | -82.23789 | 4964 ft | 120 kts | 333° |
| 2026-04-21 00:09 | 27.60495 | -82.24323 | 4973 ft | 121 kts | 332° |
| 2026-04-21 00:10 | 27.61192 | -82.24865 | 4974 ft | 122 kts | 332° |
| 2026-04-21 00:10 | 27.61900 | -82.25417 | 4973 ft | 123 kts | 332° |
| 2026-04-21 00:10 | 27.62614 | -82.25975 | 4969 ft | 124 kts | 332° |
| 2026-04-21 00:10 | 27.63329 | -82.26531 | 4965 ft | 124 kts | 332° |
| 2026-04-21 00:11 | 27.64039 | -82.27084 | 4970 ft | 124 kts | 332° |
| 2026-04-21 00:11 | 27.64749 | -82.27642 | 4967 ft | 124 kts | 332° |
| 2026-04-21 00:11 | 27.65453 | -82.28182 | 4968 ft | 117 kts | 333° |
| 2026-04-21 00:11 | 27.66096 | -82.28690 | 4967 ft | 110 kts | 333° |
| 2026-04-21 00:12 | 27.66723 | -82.29182 | 4967 ft | 106 kts | 333° |
| 2026-04-21 00:12 | 27.67309 | -82.29642 | 4970 ft | 102 kts | 334° |
| 2026-04-21 00:12 | 27.67827 | -82.30209 | 4973 ft | 107 kts | 308° |
| 2026-04-21 00:12 | 27.68151 | -82.30956 | 4976 ft | 107 kts | 303° |
| 2026-04-21 00:13 | 27.68432 | -82.31728 | 4969 ft | 106 kts | 300° |
| 2026-04-21 00:13 | 27.68692 | -82.32506 | 4973 ft | 106 kts | 298° |
| 2026-04-21 00:13 | 27.68937 | -82.33312 | 4977 ft | 110 kts | 296° |
| 2026-04-21 00:13 | 27.69185 | -82.34142 | 4974 ft | 112 kts | 296° |
| 2026-04-21 00:14 | 27.69433 | -82.34977 | 4969 ft | 113 kts | 296° |
| 2026-04-21 00:14 | 27.69686 | -82.35822 | 4958 ft | 113 kts | 296° |
| 2026-04-21 00:14 | 27.69940 | -82.36672 | 4975 ft | 113 kts | 296° |
| 2026-04-21 00:14 | 27.70195 | -82.37521 | 4973 ft | 115 kts | 297° |
| 2026-04-21 00:15 | 27.70453 | -82.38383 | 4974 ft | 116 kts | 296° |
| 2026-04-21 00:15 | 27.70716 | -82.39250 | 4973 ft | 117 kts | 296° |
| 2026-04-21 00:15 | 27.70977 | -82.40127 | 4972 ft | 118 kts | 296° |
| 2026-04-21 00:15 | 27.71242 | -82.41004 | 4972 ft | 118 kts | 296° |
| 2026-04-21 00:16 | 27.71510 | -82.41894 | 4974 ft | 124 kts | 294° |
| 2026-04-21 00:16 | 27.71792 | -82.42827 | 4971 ft | 125 kts | 295° |
| 2026-04-21 00:16 | 27.72070 | -82.43754 | 4972 ft | 126 kts | 295° |
| 2026-04-21 00:16 | 27.72352 | -82.44688 | 4976 ft | 126 kts | 295° |
| 2026-04-21 00:17 | 27.72630 | -82.45625 | 4974 ft | 127 kts | 295° |
| 2026-04-21 00:17 | 27.72882 | -82.46564 | 4876 ft | 121 kts | 295° |
| 2026-04-21 00:17 | 27.73162 | -82.47471 | 4672 ft | 123 kts | 300° |
| 2026-04-21 00:17 | 27.73519 | -82.48332 | 4499 ft | 122 kts | 306° |
| 2026-04-21 00:18 | 27.73788 | -82.49249 | 4356 ft | 126 kts | 293° |
| 2026-04-21 00:18 | 27.73982 | -82.50223 | 4270 ft | 126 kts | 289° |
| 2026-04-21 00:18 | 27.74181 | -82.51170 | 4010 ft | 124 kts | 296° |
| 2026-04-21 00:18 | 27.74442 | -82.52097 | 3735 ft | 123 kts | 301° |
| 2026-04-21 00:19 | 27.74759 | -82.52975 | 3533 ft | 116 kts | 303° |
| 2026-04-21 00:19 | 27.75142 | -82.53698 | 3377 ft | 101 kts | 328° |
| 2026-04-21 00:19 | 27.75652 | -82.54060 | 3341 ft | 71 kts | 356° |
| 2026-04-21 00:19 | 27.76113 | -82.54181 | 3226 ft | 63 kts | 10° |
| 2026-04-21 00:20 | 27.76549 | -82.54179 | 3050 ft | 64 kts | 19° |
| 2026-04-21 00:20 | 27.76961 | -82.54038 | 2928 ft | 57 kts | 31° |
| 2026-04-21 00:20 | 27.77305 | -82.53843 | 2809 ft | 56 kts | 37° |
| 2026-04-21 00:20 | 27.77755 | -82.53648 | 2704 ft | 80 kts | 20° |
| 2026-04-21 00:21 | 27.78347 | -82.53573 | 2662 ft | 90 kts | 8° |
| 2026-04-21 00:21 | 27.78993 | -82.53604 | 2684 ft | 89 kts | 9° |
| 2026-04-21 00:21 | 27.79586 | -82.53602 | 2754 ft | 85 kts | 8° |
| 2026-04-21 00:21 | 27.80171 | -82.53670 | 2818 ft | 85 kts | 1° |
| 2026-04-21 00:22 | 27.80748 | -82.53767 | 2834 ft | 82 kts | 6° |
| 2026-04-21 00:22 | 27.81303 | -82.53717 | 2811 ft | 76 kts | 27° |
| 2026-04-21 00:22 | 27.81756 | -82.53497 | 2814 ft | 71 kts | 26° |
| 2026-04-21 00:22 | 27.82241 | -82.53291 | 2696 ft | 62 kts | 21° |
| 2026-04-21 00:23 | 27.82639 | -82.53271 | 2574 ft | 61 kts | 24° |
| 2026-04-21 00:23 | 27.83225 | -82.53215 | 2349 ft | 104 kts | 359° |
| 2026-04-21 00:23 | 27.83955 | -82.53346 | 2255 ft | 114 kts | 353° |
| 2026-04-21 00:23 | 27.84648 | -82.53716 | 2233 ft | 95 kts | 358° |
| 2026-04-21 00:24 | 27.85224 | -82.53725 | 2187 ft | 73 kts | 19° |
| 2026-04-21 00:24 | 27.85695 | -82.53661 | 2249 ft | 67 kts | 15° |
| 2026-04-21 00:24 | 27.86144 | -82.53661 | 2325 ft | 65 kts | 10° |
| 2026-04-21 00:24 | 27.86590 | -82.53666 | 2357 ft | 59 kts | 19° |
| 2026-04-21 00:25 | 27.87003 | -82.53627 | 2401 ft | 61 kts | 14° |
| 2026-04-21 00:25 | 27.87420 | -82.53560 | 2499 ft | 60 kts | 21° |
| 2026-04-21 00:25 | 27.87893 | -82.53616 | 2515 ft | 80 kts | 1° |
| 2026-04-21 00:25 | 27.88503 | -82.53751 | 2388 ft | 93 kts | 1° |
| 2026-04-21 00:26 | 27.89021 | -82.53774 | 2312 ft | 68 kts | 14° |
| 2026-04-21 00:26 | 27.89447 | -82.53734 | 2294 ft | 55 kts | 20° |
| 2026-04-21 00:26 | 27.89820 | -82.53701 | 2251 ft | 55 kts | 15° |
| 2026-04-21 00:26 | 27.90210 | -82.53693 | 2199 ft | 55 kts | 14° |
| 2026-04-21 00:27 | 27.90621 | -82.53889 | 2135 ft | 75 kts | 347° |
| 2026-04-21 00:27 | 27.91101 | -82.53986 | 1999 ft | 72 kts | 8° |
| 2026-04-21 00:27 | 27.91617 | -82.54171 | 1813 ft | 85 kts | 351° |
| 2026-04-21 00:27 | 27.92133 | -82.54433 | 1597 ft | 81 kts | 353° |
| 2026-04-21 00:28 | 27.92667 | -82.54604 | 1336 ft | 74 kts | 12° |
| 2026-04-21 00:28 | 27.93190 | -82.54558 | 1118 ft | 74 kts | 18° |
| 2026-04-21 00:28 | 27.93706 | -82.54455 | 872 ft | 74 kts | 18° |
| 2026-04-21 00:28 | 27.94213 | -82.54414 | 700 ft | 73 kts | 9° |
| 2026-04-21 00:29 | 27.94695 | -82.54379 | 627 ft | 64 kts | 18° |
| 2026-04-21 00:29 | 27.95163 | -82.54293 | 361 ft | 69 kts | 15° |
| 2026-04-21 00:29 | 27.95625 | -82.54263 | 187 ft | 67 kts | 9° |
| 2026-04-21 00:29 | 27.96071 | -82.54252 | 125 ft | 63 kts | 11° |
| 2026-04-21 00:30 | 27.96513 | -82.54232 | 20 ft | 57 kts | 13° |
| 2026-04-21 00:30 | 27.96714 | -82.54127 | 7 ft | 10 kts | 323° |
| 2026-04-21 00:30 | 27.96739 | -82.54145 | 7 ft | 2 kts | 351° |